EGKA - Shoreham Airport
Distance from station: E 5mi, 14km
Updated: 10/21/2017 11:50am
NOT Current
Partly Cloudy
Partly Cloudy
 Wind from WSW
Wind: WSW 28 mph , 44 km/h, Gust: 44 mph , 70 km/h
Temperature: 55°F , 13°C
Dew Point: 52°F , 11°C
Humidity: 88%
Barometer: 29.65 inHg , 1004 hPa
Clouds: Partly Cloudy
Visibility: 6 miles , 9 km
Cloud details: Partly Cloudy 1300 ft
2017/10/21 18:50 EGKA 211850Z 25024G38KT 9000 SCT013 13/11 Q1004 RESHRA